createdAt,value
2017-11-10T00:01:25.577Z,99.90
2017-11-10T00:03:53.244Z,99.90
2017-11-10T00:06:20.887Z,99.90
2017-11-10T00:08:48.736Z,99.90
2017-11-10T00:11:17.160Z,99.90
2017-11-10T00:13:44.950Z,99.90
2017-11-10T00:16:12.581Z,99.90
2017-11-10T00:18:40.256Z,99.90
2017-11-10T00:21:08.361Z,99.90
2017-11-10T00:23:36.031Z,99.90
2017-11-10T00:26:03.687Z,99.90
2017-11-10T00:28:31.344Z,99.90
2017-11-10T00:30:59.122Z,99.90
2017-11-10T00:33:26.777Z,99.90
2017-11-10T00:35:54.462Z,99.90
2017-11-10T00:38:22.083Z,99.90
2017-11-10T00:40:49.723Z,99.90
2017-11-10T00:43:18.176Z,99.90
2017-11-10T00:45:45.796Z,99.90
2017-11-10T00:48:13.497Z,99.90
2017-11-10T00:50:41.250Z,99.90
2017-11-10T00:53:08.940Z,99.90
2017-11-10T00:55:36.611Z,99.90
2017-11-10T00:58:04.364Z,99.90
2017-11-10T01:00:32.002Z,99.90
2017-11-10T01:02:59.638Z,99.90
2017-11-10T01:05:27.330Z,99.90
2017-11-10T01:07:55.882Z,99.90
2017-11-10T01:10:23.597Z,99.90
2017-11-10T01:12:51.310Z,99.90
2017-11-10T01:15:19.026Z,99.90
2017-11-10T01:17:48.177Z,99.90
2017-11-10T01:20:15.841Z,99.90
2017-11-10T01:22:43.691Z,99.90
2017-11-10T01:25:11.436Z,99.90
2017-11-10T01:27:39.156Z,99.90
2017-11-10T01:30:06.919Z,99.90
2017-11-10T01:32:34.702Z,99.90
2017-11-10T01:35:02.361Z,99.90
2017-11-10T01:37:30.128Z,99.90
2017-11-10T01:39:57.733Z,99.90
2017-11-10T01:42:26.124Z,99.90
2017-11-10T01:44:53.786Z,99.90
2017-11-10T01:47:21.467Z,99.90
2017-11-10T01:49:53.980Z,99.90
2017-11-10T01:52:21.602Z,99.90
2017-11-10T01:54:49.316Z,99.90
2017-11-10T01:57:16.992Z,99.90
2017-11-10T01:59:45.828Z,99.90
2017-11-10T02:02:13.485Z,99.90
2017-11-10T02:04:41.175Z,99.90
2017-11-10T02:07:08.815Z,99.90
2017-11-10T02:09:36.584Z,99.90
2017-11-10T02:12:04.345Z,99.90
2017-11-10T02:14:33.607Z,99.90
2017-11-10T02:17:02.014Z,99.90
2017-11-10T02:19:29.821Z,99.90
2017-11-10T02:21:58.364Z,99.90
2017-11-10T02:24:26.169Z,99.90
2017-11-10T02:26:54.711Z,99.90
2017-11-10T02:29:22.356Z,99.90
2017-11-10T02:31:50.041Z,99.90
2017-11-10T02:34:17.721Z,99.90
2017-11-10T02:36:45.526Z,99.90
2017-11-10T02:39:14.139Z,99.90
2017-11-10T02:41:47.612Z,99.90
2017-11-10T02:44:15.321Z,99.90
2017-11-10T02:46:42.990Z,99.90
2017-11-10T02:49:10.738Z,99.90
2017-11-10T02:51:38.379Z,99.90
2017-11-10T02:54:06.061Z,99.90
2017-11-10T02:56:33.676Z,99.90
2017-11-10T02:59:02.119Z,99.90
2017-11-10T03:01:29.821Z,99.90
2017-11-10T03:03:58.428Z,99.90
2017-11-10T03:06:26.083Z,99.90
2017-11-10T03:08:53.775Z,99.90
2017-11-10T03:11:21.428Z,99.90
2017-11-10T03:13:49.142Z,99.90
2017-11-10T03:16:17.776Z,99.90
2017-11-10T03:18:45.419Z,99.90
2017-11-10T03:21:13.080Z,99.90
2017-11-10T03:23:40.822Z,99.90
2017-11-10T03:26:08.396Z,99.90
2017-11-10T03:28:36.077Z,99.90
2017-11-10T03:31:03.716Z,99.90
2017-11-10T03:33:31.388Z,99.90
2017-11-10T03:35:59.066Z,99.90
2017-11-10T03:38:26.740Z,99.90
2017-11-10T03:40:54.414Z,99.90
2017-11-10T03:43:22.279Z,99.90
2017-11-10T03:45:49.921Z,99.90
2017-11-10T03:48:17.601Z,99.90
2017-11-10T03:50:45.372Z,99.90
2017-11-10T03:53:12.992Z,99.90
2017-11-10T03:55:40.669Z,99.90
2017-11-10T03:58:08.355Z,99.90
2017-11-10T04:00:36.016Z,99.90
2017-11-10T04:03:03.813Z,99.90
2017-11-10T04:05:31.486Z,99.90
2017-11-10T04:08:00.038Z,99.90
2017-11-10T04:10:27.740Z,99.90
2017-11-10T04:12:56.208Z,99.90
2017-11-10T04:15:24.658Z,99.90
2017-11-10T04:17:52.325Z,99.90
2017-11-10T04:20:19.981Z,99.90
2017-11-10T04:22:47.736Z,99.90
2017-11-10T04:25:15.393Z,99.90
2017-11-10T04:27:43.031Z,99.90
2017-11-10T04:30:10.698Z,99.90
2017-11-10T04:32:38.382Z,99.90
2017-11-10T04:35:06.038Z,99.90
2017-11-10T04:37:33.728Z,99.90
2017-11-10T04:40:01.388Z,99.90
2017-11-10T04:42:29.050Z,99.90
2017-11-10T04:44:56.724Z,99.90
2017-11-10T04:47:24.507Z,99.90
2017-11-10T04:49:52.928Z,99.90
2017-11-10T04:52:21.007Z,99.90
2017-11-10T04:54:48.858Z,99.90
2017-11-10T04:57:16.547Z,99.90
2017-11-10T04:59:44.182Z,99.90
2017-11-10T05:02:11.842Z,99.90
2017-11-10T05:04:39.482Z,99.90
2017-11-10T05:07:07.099Z,99.90
2017-11-10T05:09:35.004Z,99.90
2017-11-10T05:12:03.485Z,99.90
2017-11-10T05:14:31.860Z,99.90
2017-11-10T05:17:00.279Z,99.90
2017-11-10T05:19:27.943Z,99.90
2017-11-10T05:21:55.640Z,99.90
2017-11-10T05:24:23.379Z,99.90
2017-11-10T05:26:51.018Z,99.90
2017-11-10T05:29:18.718Z,99.90
2017-11-10T05:31:46.386Z,99.90
2017-11-10T05:34:14.036Z,99.90
2017-11-10T05:36:41.829Z,99.90
2017-11-10T05:39:10.262Z,99.90
2017-11-10T05:41:37.995Z,99.90
2017-11-10T05:44:05.618Z,99.90
2017-11-10T05:46:33.346Z,99.90
2017-11-10T05:49:01.163Z,99.90
2017-11-10T05:51:28.840Z,99.90
2017-11-10T05:53:56.846Z,99.90
2017-11-10T05:56:24.507Z,99.90
2017-11-10T05:58:52.269Z,99.90
2017-11-10T06:01:20.875Z,99.90
2017-11-10T06:03:48.955Z,99.90
2017-11-10T06:06:17.370Z,99.90
2017-11-10T06:08:45.072Z,99.90
2017-11-10T06:11:13.582Z,99.90
2017-11-10T06:13:41.268Z,99.90
2017-11-10T06:16:08.869Z,99.90
2017-11-10T06:18:36.495Z,99.90
2017-11-10T06:21:05.737Z,99.90
2017-11-10T06:23:33.584Z,99.90
2017-11-10T06:26:01.217Z,99.90
2017-11-10T06:28:29.758Z,99.90
2017-11-10T06:30:57.526Z,99.90
2017-11-10T06:33:25.213Z,99.90
2017-11-10T06:35:53.634Z,99.90
2017-11-10T06:38:21.280Z,99.90
2017-11-10T06:40:49.043Z,99.90
2017-11-10T06:43:18.034Z,99.90
2017-11-10T06:45:45.684Z,99.90
2017-11-10T06:48:13.475Z,99.90
2017-11-10T06:50:41.221Z,99.90
2017-11-10T06:53:08.927Z,99.90
2017-11-10T06:55:36.666Z,99.90
2017-11-10T06:58:04.349Z,99.90
2017-11-10T07:00:32.035Z,99.90
2017-11-10T07:02:59.680Z,99.90
2017-11-10T07:05:27.400Z,99.90
2017-11-10T07:07:55.187Z,99.90
2017-11-10T07:10:22.876Z,99.90
2017-11-10T07:12:50.616Z,99.90
2017-11-10T07:15:18.422Z,99.90
2017-11-10T07:17:46.175Z,99.90
2017-11-10T07:20:13.830Z,99.90
2017-11-10T07:22:41.588Z,99.90
2017-11-10T07:25:09.353Z,99.90
2017-11-10T07:27:37.080Z,99.90
2017-11-10T07:30:05.522Z,99.90
2017-11-10T07:32:33.242Z,99.90
2017-11-10T07:35:00.972Z,99.90
2017-11-10T07:37:28.708Z,99.90
2017-11-10T07:39:56.447Z,99.90
2017-11-10T07:42:24.329Z,99.90
2017-11-10T07:44:52.022Z,99.90
2017-11-10T07:47:19.839Z,99.90
2017-11-10T07:49:47.645Z,99.90
2017-11-10T07:52:15.300Z,99.90
2017-11-10T07:54:44.790Z,99.90
2017-11-10T07:57:12.518Z,99.90
2017-11-10T07:59:40.320Z,99.90
2017-11-10T08:02:08.041Z,99.90
2017-11-10T08:04:35.737Z,99.90
2017-11-10T08:07:03.367Z,99.90
2017-11-10T08:09:31.481Z,99.90
2017-11-10T08:11:59.163Z,99.90
2017-11-10T08:14:27.525Z,99.90
2017-11-10T08:16:55.138Z,99.90
2017-11-10T08:19:23.629Z,99.90
2017-11-10T08:21:52.028Z,99.90
2017-11-10T08:24:19.764Z,99.90
2017-11-10T08:26:48.284Z,99.90
2017-11-10T08:29:15.936Z,99.90
2017-11-10T08:31:43.600Z,99.90
2017-11-10T08:34:11.205Z,99.90
2017-11-10T08:36:39.651Z,99.90
2017-11-10T08:39:07.258Z,99.90
2017-11-10T08:41:35.867Z,99.90
2017-11-10T08:44:03.472Z,99.90
2017-11-10T08:46:31.069Z,99.90
2017-11-10T08:48:58.677Z,99.90
2017-11-10T08:51:26.377Z,99.90
2017-11-10T08:53:54.093Z,99.90
2017-11-10T08:56:21.722Z,99.90
2017-11-10T08:58:49.792Z,99.90
2017-11-10T09:01:18.411Z,99.90
2017-11-10T09:03:46.807Z,99.90
2017-11-10T09:06:15.205Z,99.90
2017-11-10T09:08:42.980Z,99.90
2017-11-10T09:11:11.410Z,99.90
2017-11-10T09:13:39.224Z,99.90
2017-11-10T09:16:06.873Z,99.90
2017-11-10T09:18:35.329Z,99.90
2017-11-10T09:21:03.010Z,99.90
2017-11-10T09:23:30.752Z,99.90
2017-11-10T09:25:59.275Z,99.90
2017-11-10T09:31:35.422Z,99.90
2017-11-10T09:37:15.526Z,99.90
2017-11-10T09:40:00.730Z,99.90
2017-11-10T09:42:34.080Z,99.90
2017-11-10T09:45:15.628Z,99.90
2017-11-10T09:47:49.043Z,99.90
2017-11-10T09:50:22.418Z,99.90
2017-11-10T09:52:56.678Z,99.90
2017-11-10T09:55:24.514Z,99.90
2017-11-10T10:01:07.789Z,99.90
2017-11-10T10:03:39.056Z,99.90
2017-11-10T10:06:10.222Z,99.90
2017-11-10T10:08:43.518Z,99.90
2017-11-10T10:11:12.132Z,99.90
2017-11-10T10:13:44.151Z,99.90
2017-11-10T10:16:15.436Z,99.90
2017-11-10T10:18:53.804Z,99.90
2017-11-10T10:21:27.848Z,99.90
2017-11-10T10:23:55.487Z,99.90
2017-11-10T10:26:23.182Z,99.90
2017-11-10T10:28:50.798Z,99.90
2017-11-10T10:31:19.196Z,99.90
2017-11-10T10:33:46.778Z,99.90
2017-11-10T10:36:14.544Z,99.90
2017-11-10T10:38:42.206Z,99.90
2017-11-10T10:41:09.936Z,99.90
2017-11-10T10:43:37.667Z,99.90
2017-11-10T10:46:05.279Z,99.90
2017-11-10T10:48:33.013Z,99.90
2017-11-10T10:51:00.660Z,99.90
2017-11-10T10:53:28.281Z,99.90
2017-11-10T10:55:56.008Z,99.90
2017-11-10T10:58:23.909Z,99.90
2017-11-10T11:00:51.558Z,99.90
2017-11-10T11:03:19.266Z,99.90
2017-11-10T11:05:46.939Z,99.90
2017-11-10T11:08:15.380Z,99.90
2017-11-10T11:10:43.020Z,99.90
2017-11-10T11:13:10.673Z,99.90
2017-11-10T11:15:38.337Z,99.90
2017-11-10T11:18:06.261Z,99.90
2017-11-10T11:20:34.655Z,99.90
2017-11-10T11:23:03.088Z,99.90
2017-11-10T11:25:30.843Z,99.90
2017-11-10T11:27:58.451Z,99.90
2017-11-10T11:30:26.117Z,99.90
2017-11-10T11:32:54.496Z,99.90
2017-11-10T11:35:22.122Z,99.90
2017-11-10T11:37:49.799Z,99.90
2017-11-10T11:40:17.485Z,99.90
2017-11-10T11:42:46.407Z,99.90
2017-11-10T11:45:14.049Z,99.90
2017-11-10T11:47:41.757Z,99.90
2017-11-10T11:50:09.465Z,99.90
2017-11-10T11:52:37.889Z,99.90
2017-11-10T11:55:05.590Z,99.90
2017-11-10T11:57:33.469Z,99.90
2017-11-10T12:00:01.879Z,99.90
2017-11-10T12:02:29.587Z,99.90
2017-11-10T12:04:57.210Z,99.90
2017-11-10T12:07:24.938Z,99.90
2017-11-10T12:09:52.631Z,99.90
2017-11-10T12:12:20.433Z,99.90
2017-11-10T12:14:48.202Z,99.90
2017-11-10T12:17:16.107Z,99.90
2017-11-10T12:19:43.797Z,99.90
2017-11-10T12:22:11.717Z,99.90
2017-11-10T12:24:39.529Z,99.90
2017-11-10T12:27:07.242Z,99.90
2017-11-10T12:29:34.843Z,99.90
2017-11-10T12:32:02.536Z,99.90
2017-11-10T12:34:30.371Z,99.90
2017-11-10T12:36:58.026Z,99.90
2017-11-10T12:39:25.656Z,99.90
2017-11-10T12:41:54.108Z,99.90
2017-11-10T12:44:21.758Z,99.90
2017-11-10T12:46:49.489Z,99.90
2017-11-10T12:49:17.845Z,99.90
2017-11-10T12:51:45.540Z,99.90
2017-11-10T12:54:13.199Z,99.90
2017-11-10T12:56:40.946Z,99.90
2017-11-10T12:59:09.339Z,99.90
2017-11-10T13:01:37.012Z,99.90
2017-11-10T13:04:04.668Z,99.90
2017-11-10T13:06:33.079Z,99.90
2017-11-10T13:09:00.726Z,99.90
2017-11-10T13:11:28.383Z,99.90
2017-11-10T13:13:56.021Z,99.90
2017-11-10T13:16:24.465Z,99.90
2017-11-10T13:18:52.181Z,99.90
2017-11-10T13:21:20.275Z,99.90
2017-11-10T13:23:48.004Z,99.90
2017-11-10T13:26:15.673Z,99.90
2017-11-10T13:28:43.331Z,99.90
2017-11-10T13:31:11.814Z,99.90
2017-11-10T13:33:39.515Z,99.90
2017-11-10T13:36:07.475Z,99.90
2017-11-10T13:38:35.148Z,99.90
2017-11-10T13:41:02.777Z,99.90
2017-11-10T13:43:30.388Z,99.90
2017-11-10T13:45:57.970Z,99.90
2017-11-10T13:48:27.037Z,99.90
2017-11-10T13:50:54.721Z,99.90
2017-11-10T13:53:22.398Z,99.90
2017-11-10T13:55:50.791Z,99.90
2017-11-10T13:58:18.403Z,99.90
2017-11-10T14:00:46.122Z,99.90
2017-11-10T14:03:13.868Z,99.90
2017-11-10T14:05:42.466Z,99.90
2017-11-10T14:08:10.103Z,99.90
2017-11-10T14:10:38.597Z,99.90
2017-11-10T14:13:06.958Z,99.90
2017-11-10T14:15:34.598Z,99.90
2017-11-10T14:18:02.441Z,99.90
2017-11-10T14:20:30.182Z,99.90
2017-11-10T14:22:57.843Z,99.90
2017-11-10T14:25:25.504Z,99.90
2017-11-10T14:27:53.145Z,99.90
2017-11-10T14:30:21.581Z,99.90
2017-11-10T14:32:50.105Z,99.90
2017-11-10T14:35:18.478Z,99.70
2017-11-10T14:37:46.925Z,99.40
2017-11-10T14:40:14.537Z,99.40
2017-11-10T14:42:42.203Z,99.70
2017-11-10T14:45:09.862Z,99.20
2017-11-10T14:47:37.503Z,99.60
2017-11-10T14:50:05.103Z,99.40
2017-11-10T14:52:32.752Z,99.50
2017-11-10T14:55:00.433Z,99.20
2017-11-10T14:57:28.050Z,99.20
2017-11-10T14:59:56.421Z,99.20
2017-11-10T15:02:24.022Z,98.80
2017-11-10T15:04:51.659Z,98.90
2017-11-10T15:07:19.414Z,98.40
2017-11-10T15:09:47.907Z,97.20
2017-11-10T15:12:15.497Z,96.90
2017-11-10T15:14:43.932Z,97.00
2017-11-10T15:17:11.563Z,97.30
2017-11-10T15:19:39.242Z,96.60
2017-11-10T15:22:07.737Z,96.30
2017-11-10T15:24:35.788Z,96.30
2017-11-10T15:27:03.418Z,96.40
2017-11-10T15:29:31.023Z,95.70
2017-11-10T15:31:58.728Z,95.00
2017-11-10T15:34:27.713Z,95.20
2017-11-10T15:36:55.345Z,95.20
2017-11-10T15:39:23.031Z,95.50
2017-11-10T15:41:52.534Z,95.20
2017-11-10T15:44:20.285Z,95.30
2017-11-10T15:46:47.951Z,95.80
2017-11-10T15:49:15.669Z,95.60
2017-11-10T15:51:43.362Z,95.60
2017-11-10T15:54:11.231Z,95.80
2017-11-10T15:56:38.853Z,95.60
2017-11-10T15:59:06.615Z,95.40
2017-11-10T16:01:35.233Z,95.40
2017-11-10T16:04:02.886Z,95.30
2017-11-10T16:06:30.474Z,95.40
2017-11-10T16:08:58.811Z,95.40
2017-11-10T16:11:26.409Z,95.70
2017-11-10T16:13:54.003Z,95.60
2017-11-10T16:16:22.354Z,95.80
2017-11-10T16:18:50.021Z,95.80
2017-11-10T16:21:17.592Z,96.10
2017-11-10T16:23:45.990Z,96.00
2017-11-10T16:26:13.681Z,96.00
2017-11-10T16:28:41.360Z,95.90
2017-11-10T16:31:09.060Z,95.80
2017-11-10T16:33:36.724Z,95.50
2017-11-10T16:36:04.386Z,95.60
2017-11-10T16:38:32.662Z,95.40
2017-11-10T16:41:01.046Z,94.70
2017-11-10T16:43:28.741Z,94.70
2017-11-10T16:45:56.404Z,94.50
2017-11-10T16:48:23.997Z,94.80
2017-11-10T16:50:51.711Z,94.00
2017-11-10T16:53:19.701Z,94.20
2017-11-10T16:55:47.368Z,94.30
2017-11-10T16:58:15.073Z,94.30
2017-11-10T17:00:42.658Z,94.20
2017-11-10T17:03:10.386Z,94.20
2017-11-10T17:05:38.199Z,94.20
2017-11-10T17:08:05.920Z,94.20
2017-11-10T17:10:33.533Z,94.60
2017-11-10T17:13:01.254Z,94.90
2017-11-10T17:15:29.049Z,94.30
2017-11-10T17:17:56.759Z,94.60
2017-11-10T17:20:25.253Z,95.00
2017-11-10T17:22:52.843Z,95.00
2017-11-10T17:25:21.289Z,95.30
2017-11-10T17:27:49.062Z,95.30
2017-11-10T17:30:16.645Z,95.50
2017-11-10T17:32:44.304Z,95.70
2017-11-10T17:35:12.007Z,96.00
2017-11-10T17:37:39.675Z,96.20
2017-11-10T17:40:07.375Z,96.40
2017-11-10T17:42:34.996Z,96.50
2017-11-10T17:45:02.728Z,96.70
2017-11-10T17:47:31.349Z,96.90
2017-11-10T17:49:58.988Z,97.00
2017-11-10T17:52:26.695Z,97.10
2017-11-10T17:54:54.382Z,97.20
2017-11-10T17:57:22.891Z,97.70
2017-11-10T17:59:50.543Z,97.60
2017-11-10T18:02:18.218Z,97.90
2017-11-10T18:04:45.930Z,98.00
2017-11-10T18:07:13.621Z,98.00
2017-11-10T18:09:42.030Z,98.10
2017-11-10T18:12:09.662Z,98.10
2017-11-10T18:14:37.413Z,98.20
2017-11-10T18:17:06.610Z,98.40
2017-11-10T18:19:34.993Z,98.40
2017-11-10T18:22:04.240Z,98.40
2017-11-10T18:24:31.998Z,98.40
2017-11-10T18:26:59.720Z,98.40
2017-11-10T18:29:27.981Z,98.40
2017-11-10T18:31:55.582Z,98.30
2017-11-10T18:34:23.233Z,98.10
2017-11-10T18:36:50.909Z,98.00
2017-11-10T18:39:18.647Z,98.10
2017-11-10T18:41:47.764Z,97.90
2017-11-10T18:44:15.334Z,97.90
2017-11-10T18:46:43.062Z,97.80
2017-11-10T18:49:17.224Z,97.40
2017-11-10T18:51:44.888Z,97.40
2017-11-10T18:54:12.554Z,97.30
2017-11-10T18:56:40.208Z,97.20
2017-11-10T18:59:07.872Z,97.30
2017-11-10T19:01:36.076Z,97.10
2017-11-10T19:04:03.769Z,96.90
2017-11-10T19:06:31.420Z,96.90
2017-11-10T19:08:59.137Z,96.60
2017-11-10T19:11:27.110Z,96.50
2017-11-10T19:13:54.800Z,96.40
2017-11-10T19:16:22.444Z,96.10
2017-11-10T19:18:50.167Z,95.80
2017-11-10T19:21:17.781Z,95.60
2017-11-10T19:23:45.493Z,95.60
2017-11-10T19:26:13.838Z,93.60
2017-11-10T19:28:41.506Z,93.60
2017-11-10T19:31:09.137Z,93.40
2017-11-10T19:33:37.816Z,93.40
2017-11-10T19:36:05.484Z,93.40
2017-11-10T19:38:33.064Z,93.60
2017-11-10T19:41:00.819Z,93.90
2017-11-10T19:43:28.479Z,94.40
2017-11-10T19:45:56.128Z,94.90
2017-11-10T19:48:23.780Z,95.30
2017-11-10T19:50:51.385Z,95.70
2017-11-10T19:53:18.979Z,96.00
2017-11-10T19:55:47.373Z,96.30
2017-11-10T19:58:15.012Z,96.30
2017-11-10T20:00:43.643Z,96.50
2017-11-10T20:03:11.888Z,96.70
2017-11-10T20:05:40.427Z,96.80
2017-11-10T20:08:08.911Z,96.80
2017-11-10T20:10:36.507Z,97.20
2017-11-10T20:13:04.205Z,97.10
2017-11-10T20:15:31.828Z,97.20
2017-11-10T20:17:59.482Z,97.30
2017-11-10T20:20:27.097Z,97.20
2017-11-10T20:22:54.784Z,97.10
2017-11-10T20:25:22.362Z,97.20
2017-11-10T20:27:49.989Z,97.10
2017-11-10T20:30:18.351Z,96.80
2017-11-10T20:32:46.778Z,96.80
2017-11-10T20:35:15.160Z,96.80
2017-11-10T20:37:43.163Z,96.60
2017-11-10T20:40:11.511Z,96.50
2017-11-10T20:42:39.149Z,96.50
2017-11-10T20:45:06.831Z,96.60
2017-11-10T20:47:34.506Z,96.60
2017-11-10T20:50:02.137Z,96.40
2017-11-10T20:52:29.757Z,96.50
2017-11-10T20:54:58.176Z,96.10
2017-11-10T20:57:25.840Z,96.00
2017-11-10T20:59:53.434Z,95.80
2017-11-10T21:02:21.857Z,96.00
2017-11-10T21:04:49.499Z,96.00
2017-11-10T21:07:17.166Z,95.90
2017-11-10T21:09:44.820Z,95.50
2017-11-10T21:12:12.467Z,95.40
2017-11-10T21:14:40.883Z,95.10
2017-11-10T21:17:08.482Z,95.10
2017-11-10T21:19:36.060Z,94.80
2017-11-10T21:22:04.723Z,94.70
2017-11-10T21:24:32.305Z,94.70
2017-11-10T21:26:59.951Z,94.60
2017-11-10T21:29:27.640Z,94.40
2017-11-10T21:31:55.302Z,94.40
2017-11-10T21:34:23.643Z,96.00
2017-11-10T21:36:51.459Z,96.00
2017-11-10T21:39:19.163Z,95.40
2017-11-10T21:41:46.811Z,95.60
2017-11-10T21:44:14.499Z,94.30
2017-11-10T21:46:42.131Z,94.70
2017-11-10T21:49:09.766Z,94.70
2017-11-10T21:51:38.003Z,95.20
2017-11-10T21:54:05.627Z,95.20
2017-11-10T21:56:33.349Z,95.10
2017-11-10T21:59:01.809Z,95.70
2017-11-10T22:01:29.573Z,95.60
2017-11-10T22:03:57.264Z,95.70
2017-11-10T22:06:24.971Z,95.80
2017-11-10T22:08:52.732Z,95.90
2017-11-10T22:11:20.507Z,95.90
2017-11-10T22:13:48.179Z,96.30
2017-11-10T22:16:15.936Z,96.40
2017-11-10T22:18:43.789Z,96.60
2017-11-10T22:21:11.420Z,96.70
2017-11-10T22:23:39.150Z,96.70
2017-11-10T22:26:06.811Z,96.70
2017-11-10T22:28:34.402Z,96.70
2017-11-10T22:31:02.191Z,96.90
2017-11-10T22:33:29.783Z,96.80
2017-11-10T22:35:58.819Z,96.90
2017-11-10T22:38:27.303Z,97.20
2017-11-10T22:40:54.944Z,97.10
2017-11-10T22:43:22.765Z,97.30
2017-11-10T22:45:50.432Z,97.10
2017-11-10T22:48:18.060Z,97.40
2017-11-10T22:50:46.755Z,97.40
2017-11-10T22:53:14.406Z,97.20
2017-11-10T22:55:42.106Z,97.40
2017-11-10T22:58:10.051Z,97.40
2017-11-10T23:00:37.939Z,97.10
2017-11-10T23:03:05.880Z,97.10
2017-11-10T23:05:33.682Z,97.30
2017-11-10T23:08:01.320Z,97.20
2017-11-10T23:10:29.202Z,97.20
2017-11-10T23:12:56.920Z,96.90
2017-11-10T23:15:24.771Z,97.30
2017-11-10T23:17:53.157Z,97.70
2017-11-10T23:20:20.792Z,97.70
2017-11-10T23:22:48.504Z,97.90
2017-11-10T23:25:16.560Z,98.00
2017-11-10T23:27:44.156Z,98.20
2017-11-10T23:30:11.805Z,98.20
2017-11-10T23:32:39.382Z,98.30
2017-11-10T23:35:08.291Z,98.30
2017-11-10T23:37:37.642Z,98.40
2017-11-10T23:40:05.254Z,98.40
2017-11-10T23:42:33.048Z,98.10
2017-11-10T23:45:01.523Z,97.90
2017-11-10T23:47:29.124Z,97.90
2017-11-10T23:49:56.725Z,98.10
2017-11-10T23:52:24.339Z,98.10
2017-11-10T23:54:52.034Z,98.20
2017-11-10T23:57:19.631Z,98.10
2017-11-10T23:59:47.289Z,98.40
